sensor_id;sensor_type;location;lat;lon;timestamp;temperature;humidity
36690;DHT22;22676;51.120;3.702;2023-03-01T00:01:00;22.90;40.80
36690;DHT22;22676;51.120;3.702;2023-03-01T00:03:26;22.90;40.70
36690;DHT22;22676;51.120;3.702;2023-03-01T00:05:52;22.90;40.60
36690;DHT22;22676;51.120;3.702;2023-03-01T00:08:18;23.00;40.50
36690;DHT22;22676;51.120;3.702;2023-03-01T00:10:43;23.00;40.30
36690;DHT22;22676;51.120;3.702;2023-03-01T00:13:09;23.00;40.20
36690;DHT22;22676;51.120;3.702;2023-03-01T00:15:37;22.90;40.40
36690;DHT22;22676;51.120;3.702;2023-03-01T00:18:03;23.00;40.40
36690;DHT22;22676;51.120;3.702;2023-03-01T00:20:28;23.00;40.10
36690;DHT22;22676;51.120;3.702;2023-03-01T00:22:54;23.00;40.00
36690;DHT22;22676;51.120;3.702;2023-03-01T00:25:19;23.00;39.90
36690;DHT22;22676;51.120;3.702;2023-03-01T00:27:46;23.00;40.00
36690;DHT22;22676;51.120;3.702;2023-03-01T00:30:11;23.00;40.00
36690;DHT22;22676;51.120;3.702;2023-03-01T00:32:37;22.90;40.00
36690;DHT22;22676;51.120;3.702;2023-03-01T00:35:03;23.00;40.00
36690;DHT22;22676;51.120;3.702;2023-03-01T00:37:29;22.90;40.00
36690;DHT22;22676;51.120;3.702;2023-03-01T00:39:54;22.90;39.90
36690;DHT22;22676;51.120;3.702;2023-03-01T00:42:20;22.90;40.00
36690;DHT22;22676;51.120;3.702;2023-03-01T00:44:47;22.90;40.00
36690;DHT22;22676;51.120;3.702;2023-03-01T00:47:12;22.80;40.00
36690;DHT22;22676;51.120;3.702;2023-03-01T00:49:39;22.70;40.20
36690;DHT22;22676;51.120;3.702;2023-03-01T00:52:04;22.80;40.00
36690;DHT22;22676;51.120;3.702;2023-03-01T00:54:30;22.90;39.80
36690;DHT22;22676;51.120;3.702;2023-03-01T00:56:56;22.90;39.70
36690;DHT22;22676;51.120;3.702;2023-03-01T00:59:21;23.00;39.60
36690;DHT22;22676;51.120;3.702;2023-03-01T01:01:47;22.90;39.60
36690;DHT22;22676;51.120;3.702;2023-03-01T01:04:13;22.90;39.60
36690;DHT22;22676;51.120;3.702;2023-03-01T01:06:42;23.00;39.70
36690;DHT22;22676;51.120;3.702;2023-03-01T01:09:08;23.00;39.80
36690;DHT22;22676;51.120;3.702;2023-03-01T01:11:34;22.80;39.90
36690;DHT22;22676;51.120;3.702;2023-03-01T01:14:02;22.60;40.10
36690;DHT22;22676;51.120;3.702;2023-03-01T01:16:28;22.50;40.40
36690;DHT22;22676;51.120;3.702;2023-03-01T01:18:53;22.60;40.40
36690;DHT22;22676;51.120;3.702;2023-03-01T01:21:21;22.60;40.40
36690;DHT22;22676;51.120;3.702;2023-03-01T01:23:47;22.60;40.40
36690;DHT22;22676;51.120;3.702;2023-03-01T01:26:18;22.50;40.50
36690;DHT22;22676;51.120;3.702;2023-03-01T01:28:44;22.40;40.60
36690;DHT22;22676;51.120;3.702;2023-03-01T01:31:09;22.40;40.70
36690;DHT22;22676;51.120;3.702;2023-03-01T01:33:35;22.50;40.40
36690;DHT22;22676;51.120;3.702;2023-03-01T01:36:01;22.60;40.20
36690;DHT22;22676;51.120;3.702;2023-03-01T01:38:26;22.60;40.10
36690;DHT22;22676;51.120;3.702;2023-03-01T01:40:52;22.60;40.10
36690;DHT22;22676;51.120;3.702;2023-03-01T01:45:43;22.60;40.00
36690;DHT22;22676;51.120;3.702;2023-03-01T01:48:10;22.70;40.10
36690;DHT22;22676;51.120;3.702;2023-03-01T01:50:38;22.50;39.90
36690;DHT22;22676;51.120;3.702;2023-03-01T01:53:14;22.50;39.70
36690;DHT22;22676;51.120;3.702;2023-03-01T01:55:42;22.40;39.70
36690;DHT22;22676;51.120;3.702;2023-03-01T01:58:09;22.50;39.70
36690;DHT22;22676;51.120;3.702;2023-03-01T02:00:36;22.50;39.70
36690;DHT22;22676;51.120;3.702;2023-03-01T02:03:10;22.60;39.50
36690;DHT22;22676;51.120;3.702;2023-03-01T02:08:02;22.70;39.10
36690;DHT22;22676;51.120;3.702;2023-03-01T02:10:27;22.70;39.30
36690;DHT22;22676;51.120;3.702;2023-03-01T02:12:53;22.70;39.00
36690;DHT22;22676;51.120;3.702;2023-03-01T02:15:21;22.80;38.90
36690;DHT22;22676;51.120;3.702;2023-03-01T02:17:47;22.80;38.90
36690;DHT22;22676;51.120;3.702;2023-03-01T02:20:56;22.80;38.90
36690;DHT22;22676;51.120;3.702;2023-03-01T02:23:02;22.70;39.00
36690;DHT22;22676;51.120;3.702;2023-03-01T02:30:44;22.70;38.80
36690;DHT22;22676;51.120;3.702;2023-03-01T02:33:29;22.70;38.80
36690;DHT22;22676;51.120;3.702;2023-03-01T02:36:00;22.60;39.00
36690;DHT22;22676;51.120;3.702;2023-03-01T02:38:27;22.60;38.80
36690;DHT22;22676;51.120;3.702;2023-03-01T02:40:53;22.70;38.60
36690;DHT22;22676;51.120;3.702;2023-03-01T02:43:19;22.70;38.70
36690;DHT22;22676;51.120;3.702;2023-03-01T02:45:48;22.60;38.90
36690;DHT22;22676;51.120;3.702;2023-03-01T02:48:15;22.50;39.10
36690;DHT22;22676;51.120;3.702;2023-03-01T02:50:52;22.40;39.20
36690;DHT22;22676;51.120;3.702;2023-03-01T02:55:58;22.20;39.40
36690;DHT22;22676;51.120;3.702;2023-03-01T02:58:24;22.20;39.70
36690;DHT22;22676;51.120;3.702;2023-03-01T03:00:50;22.20;39.70
36690;DHT22;22676;51.120;3.702;2023-03-01T03:03:16;22.20;39.70
36690;DHT22;22676;51.120;3.702;2023-03-01T03:05:43;22.00;40.00
36690;DHT22;22676;51.120;3.702;2023-03-01T03:08:08;21.90;40.20
36690;DHT22;22676;51.120;3.702;2023-03-01T03:10:38;21.90;40.30
36690;DHT22;22676;51.120;3.702;2023-03-01T03:13:08;21.70;40.20
36690;DHT22;22676;51.120;3.702;2023-03-01T03:15:34;21.70;40.30
36690;DHT22;22676;51.120;3.702;2023-03-01T03:18:05;21.70;40.20
36690;DHT22;22676;51.120;3.702;2023-03-01T03:20:31;21.60;40.40
36690;DHT22;22676;51.120;3.702;2023-03-01T03:22:57;21.50;40.50
36690;DHT22;22676;51.120;3.702;2023-03-01T03:25:24;21.50;40.80
36690;DHT22;22676;51.120;3.702;2023-03-01T03:27:50;21.50;40.80
36690;DHT22;22676;51.120;3.702;2023-03-01T03:30:22;21.40;40.10
36690;DHT22;22676;51.120;3.702;2023-03-01T03:32:48;21.30;40.10
36690;DHT22;22676;51.120;3.702;2023-03-01T03:35:24;21.40;40.10
36690;DHT22;22676;51.120;3.702;2023-03-01T03:37:50;21.30;40.20
36690;DHT22;22676;51.120;3.702;2023-03-01T03:40:32;21.40;40.10
36690;DHT22;22676;51.120;3.702;2023-03-01T03:42:58;21.40;40.10
36690;DHT22;22676;51.120;3.702;2023-03-01T03:45:23;21.30;40.10
36690;DHT22;22676;51.120;3.702;2023-03-01T03:47:49;21.20;40.30
36690;DHT22;22676;51.120;3.702;2023-03-01T03:50:15;21.10;40.30
36690;DHT22;22676;51.120;3.702;2023-03-01T03:52:41;21.20;40.30
36690;DHT22;22676;51.120;3.702;2023-03-01T03:55:07;21.20;40.30
36690;DHT22;22676;51.120;3.702;2023-03-01T03:57:37;21.30;40.20
36690;DHT22;22676;51.120;3.702;2023-03-01T04:00:02;21.20;40.30
36690;DHT22;22676;51.120;3.702;2023-03-01T04:02:30;21.10;40.50
36690;DHT22;22676;51.120;3.702;2023-03-01T04:04:55;21.10;40.20
36690;DHT22;22676;51.120;3.702;2023-03-01T04:07:21;21.20;40.20
36690;DHT22;22676;51.120;3.702;2023-03-01T04:09:46;21.20;40.10
36690;DHT22;22676;51.120;3.702;2023-03-01T04:12:12;21.20;40.10
36690;DHT22;22676;51.120;3.702;2023-03-01T04:14:38;21.10;40.40
36690;DHT22;22676;51.120;3.702;2023-03-01T04:17:03;21.00;40.30
36690;DHT22;22676;51.120;3.702;2023-03-01T04:19:31;21.10;40.30
36690;DHT22;22676;51.120;3.702;2023-03-01T04:22:04;21.20;40.20
36690;DHT22;22676;51.120;3.702;2023-03-01T04:24:35;21.10;40.10
36690;DHT22;22676;51.120;3.702;2023-03-01T04:27:00;21.10;40.10
36690;DHT22;22676;51.120;3.702;2023-03-01T04:29:26;20.90;40.60
36690;DHT22;22676;51.120;3.702;2023-03-01T04:31:52;20.90;40.70
36690;DHT22;22676;51.120;3.702;2023-03-01T04:34:18;21.00;40.30
36690;DHT22;22676;51.120;3.702;2023-03-01T04:36:43;21.00;40.30
36690;DHT22;22676;51.120;3.702;2023-03-01T04:39:09;21.10;40.20
36690;DHT22;22676;51.120;3.702;2023-03-01T04:41:37;21.10;40.10
36690;DHT22;22676;51.120;3.702;2023-03-01T04:44:04;20.90;40.50
36690;DHT22;22676;51.120;3.702;2023-03-01T04:46:30;20.90;40.70
36690;DHT22;22676;51.120;3.702;2023-03-01T04:48:55;21.00;40.40
36690;DHT22;22676;51.120;3.702;2023-03-01T04:51:21;21.00;40.20
36690;DHT22;22676;51.120;3.702;2023-03-01T04:53:46;21.00;40.10
36690;DHT22;22676;51.120;3.702;2023-03-01T04:56:12;21.00;40.00
36690;DHT22;22676;51.120;3.702;2023-03-01T04:58:39;20.80;40.50
36690;DHT22;22676;51.120;3.702;2023-03-01T05:01:12;20.80;41.00
36690;DHT22;22676;51.120;3.702;2023-03-01T05:03:41;20.90;40.50
36690;DHT22;22676;51.120;3.702;2023-03-01T05:06:07;21.20;40.10
36690;DHT22;22676;51.120;3.702;2023-03-01T05:08:32;21.30;39.70
36690;DHT22;22676;51.120;3.702;2023-03-01T05:10:59;21.40;39.50
36690;DHT22;22676;51.120;3.702;2023-03-01T05:13:25;21.40;39.30
36690;DHT22;22676;51.120;3.702;2023-03-01T05:15:55;21.50;39.20
36690;DHT22;22676;51.120;3.702;2023-03-01T05:18:21;21.50;39.00
36690;DHT22;22676;51.120;3.702;2023-03-01T05:20:46;21.60;38.80
36690;DHT22;22676;51.120;3.702;2023-03-01T05:23:12;21.70;38.50
36690;DHT22;22676;51.120;3.702;2023-03-01T05:25:38;21.70;38.30
36690;DHT22;22676;51.120;3.702;2023-03-01T05:28:06;21.80;38.20
36690;DHT22;22676;51.120;3.702;2023-03-01T05:30:32;21.90;38.20
36690;DHT22;22676;51.120;3.702;2023-03-01T05:32:58;21.90;38.10
36690;DHT22;22676;51.120;3.702;2023-03-01T05:35:24;21.90;37.80
36690;DHT22;22676;51.120;3.702;2023-03-01T05:37:49;21.90;37.80
36690;DHT22;22676;51.120;3.702;2023-03-01T05:40:16;22.00;37.80
36690;DHT22;22676;51.120;3.702;2023-03-01T05:42:43;22.00;37.70
36690;DHT22;22676;51.120;3.702;2023-03-01T05:45:09;22.10;37.60
36690;DHT22;22676;51.120;3.702;2023-03-01T05:47:35;22.10;37.70
36690;DHT22;22676;51.120;3.702;2023-03-01T05:50:01;22.20;37.70
36690;DHT22;22676;51.120;3.702;2023-03-01T05:52:27;22.20;37.70
36690;DHT22;22676;51.120;3.702;2023-03-01T05:54:52;22.30;37.70
36690;DHT22;22676;51.120;3.702;2023-03-01T05:57:18;22.40;37.70
36690;DHT22;22676;51.120;3.702;2023-03-01T05:59:45;22.40;37.60
36690;DHT22;22676;51.120;3.702;2023-03-01T06:02:10;22.50;37.50
36690;DHT22;22676;51.120;3.702;2023-03-01T06:04:36;22.60;37.50
36690;DHT22;22676;51.120;3.702;2023-03-01T06:07:01;22.60;37.10
36690;DHT22;22676;51.120;3.702;2023-03-01T06:09:27;22.60;37.20
36690;DHT22;22676;51.120;3.702;2023-03-01T06:11:53;22.70;37.00
36690;DHT22;22676;51.120;3.702;2023-03-01T06:14:18;22.70;36.80
36690;DHT22;22676;51.120;3.702;2023-03-01T06:16:46;22.70;36.80
36690;DHT22;22676;51.120;3.702;2023-03-01T06:19:11;22.70;36.80
36690;DHT22;22676;51.120;3.702;2023-03-01T06:21:37;22.80;36.60
36690;DHT22;22676;51.120;3.702;2023-03-01T06:24:02;22.90;36.40
36690;DHT22;22676;51.120;3.702;2023-03-01T06:26:28;22.90;36.30
36690;DHT22;22676;51.120;3.702;2023-03-01T06:28:53;22.90;36.20
36690;DHT22;22676;51.120;3.702;2023-03-01T06:31:19;22.80;36.50
36690;DHT22;22676;51.120;3.702;2023-03-01T06:33:45;22.80;36.30
36690;DHT22;22676;51.120;3.702;2023-03-01T06:36:10;22.90;36.10
36690;DHT22;22676;51.120;3.702;2023-03-01T06:38:36;22.90;36.00
36690;DHT22;22676;51.120;3.702;2023-03-01T06:41:01;23.00;35.90
36690;DHT22;22676;51.120;3.702;2023-03-01T06:43:27;23.00;35.70
36690;DHT22;22676;51.120;3.702;2023-03-01T06:45:52;23.10;35.70
36690;DHT22;22676;51.120;3.702;2023-03-01T06:48:18;23.10;35.60
36690;DHT22;22676;51.120;3.702;2023-03-01T06:50:43;23.20;35.60
36690;DHT22;22676;51.120;3.702;2023-03-01T06:53:09;23.20;35.60
36690;DHT22;22676;51.120;3.702;2023-03-01T06:55:35;23.30;35.50
36690;DHT22;22676;51.120;3.702;2023-03-01T06:58:01;23.30;35.40
36690;DHT22;22676;51.120;3.702;2023-03-01T07:00:27;23.40;35.50
36690;DHT22;22676;51.120;3.702;2023-03-01T07:02:53;23.40;35.50
36690;DHT22;22676;51.120;3.702;2023-03-01T07:05:18;23.40;35.50
36690;DHT22;22676;51.120;3.702;2023-03-01T07:07:44;23.50;35.50
36690;DHT22;22676;51.120;3.702;2023-03-01T07:10:10;23.50;35.50
36690;DHT22;22676;51.120;3.702;2023-03-01T07:12:36;23.50;35.50
36690;DHT22;22676;51.120;3.702;2023-03-01T07:15:01;23.50;35.60
36690;DHT22;22676;51.120;3.702;2023-03-01T07:17:27;23.50;35.60
36690;DHT22;22676;51.120;3.702;2023-03-01T07:19:53;23.60;35.50
36690;DHT22;22676;51.120;3.702;2023-03-01T07:22:19;23.50;35.70
36690;DHT22;22676;51.120;3.702;2023-03-01T07:24:44;23.50;35.60
36690;DHT22;22676;51.120;3.702;2023-03-01T07:27:10;23.60;35.50
36690;DHT22;22676;51.120;3.702;2023-03-01T07:29:36;23.60;35.40
36690;DHT22;22676;51.120;3.702;2023-03-01T07:32:04;23.60;35.20
36690;DHT22;22676;51.120;3.702;2023-03-01T07:34:30;23.60;35.40
36690;DHT22;22676;51.120;3.702;2023-03-01T07:36:56;23.70;35.40
36690;DHT22;22676;51.120;3.702;2023-03-01T07:39:21;23.70;35.30
36690;DHT22;22676;51.120;3.702;2023-03-01T07:41:48;23.80;35.30
36690;DHT22;22676;51.120;3.702;2023-03-01T07:44:14;23.90;35.30
36690;DHT22;22676;51.120;3.702;2023-03-01T07:46:40;23.90;35.30
36690;DHT22;22676;51.120;3.702;2023-03-01T07:49:06;23.90;35.30
36690;DHT22;22676;51.120;3.702;2023-03-01T07:51:32;24.00;35.20
36690;DHT22;22676;51.120;3.702;2023-03-01T07:53:57;24.00;35.10
36690;DHT22;22676;51.120;3.702;2023-03-01T07:56:23;24.00;35.00
36690;DHT22;22676;51.120;3.702;2023-03-01T07:58:49;24.00;34.90
36690;DHT22;22676;51.120;3.702;2023-03-01T08:01:15;24.00;34.90
36690;DHT22;22676;51.120;3.702;2023-03-01T08:03:41;24.10;34.70
36690;DHT22;22676;51.120;3.702;2023-03-01T08:06:09;24.10;34.60
36690;DHT22;22676;51.120;3.702;2023-03-01T08:08:34;24.10;34.40
36690;DHT22;22676;51.120;3.702;2023-03-01T08:11:01;24.20;34.50
36690;DHT22;22676;51.120;3.702;2023-03-01T08:13:27;24.10;34.40
36690;DHT22;22676;51.120;3.702;2023-03-01T08:15:53;24.10;34.30
36690;DHT22;22676;51.120;3.702;2023-03-01T08:18:19;24.20;34.20
36690;DHT22;22676;51.120;3.702;2023-03-01T08:20:45;24.20;33.70
36690;DHT22;22676;51.120;3.702;2023-03-01T08:23:11;24.20;34.10
36690;DHT22;22676;51.120;3.702;2023-03-01T08:25:36;24.10;33.80
36690;DHT22;22676;51.120;3.702;2023-03-01T08:28:02;24.20;33.80
36690;DHT22;22676;51.120;3.702;2023-03-01T08:30:27;24.20;33.60
36690;DHT22;22676;51.120;3.702;2023-03-01T08:32:53;24.10;33.80
36690;DHT22;22676;51.120;3.702;2023-03-01T08:35:19;24.10;34.00
36690;DHT22;22676;51.120;3.702;2023-03-01T08:37:44;24.10;33.80
36690;DHT22;22676;51.120;3.702;2023-03-01T08:40:10;24.10;33.80
36690;DHT22;22676;51.120;3.702;2023-03-01T08:42:36;24.10;33.70
36690;DHT22;22676;51.120;3.702;2023-03-01T08:45:02;24.10;33.60
36690;DHT22;22676;51.120;3.702;2023-03-01T08:47:28;24.20;33.50
36690;DHT22;22676;51.120;3.702;2023-03-01T08:49:54;24.00;33.60
36690;DHT22;22676;51.120;3.702;2023-03-01T08:52:19;24.00;33.80
36690;DHT22;22676;51.120;3.702;2023-03-01T08:54:46;23.80;34.00
36690;DHT22;22676;51.120;3.702;2023-03-01T08:57:12;23.80;34.30
36690;DHT22;22676;51.120;3.702;2023-03-01T08:59:38;23.80;34.40
36690;DHT22;22676;51.120;3.702;2023-03-01T09:02:04;23.90;34.40
36690;DHT22;22676;51.120;3.702;2023-03-01T09:04:30;23.70;34.60
36690;DHT22;22676;51.120;3.702;2023-03-01T09:06:55;23.70;34.90
36690;DHT22;22676;51.120;3.702;2023-03-01T09:09:21;23.60;35.10
36690;DHT22;22676;51.120;3.702;2023-03-01T09:11:46;23.60;35.20
36690;DHT22;22676;51.120;3.702;2023-03-01T09:14:12;23.70;35.70
36690;DHT22;22676;51.120;3.702;2023-03-01T09:16:38;23.70;35.70
36690;DHT22;22676;51.120;3.702;2023-03-01T09:19:05;23.70;35.50
36690;DHT22;22676;51.120;3.702;2023-03-01T09:21:30;23.70;35.50
36690;DHT22;22676;51.120;3.702;2023-03-01T09:23:56;23.80;35.60
36690;DHT22;22676;51.120;3.702;2023-03-01T09:26:22;23.70;35.50
36690;DHT22;22676;51.120;3.702;2023-03-01T09:28:49;23.70;35.50
36690;DHT22;22676;51.120;3.702;2023-03-01T09:31:16;23.70;35.80
36690;DHT22;22676;51.120;3.702;2023-03-01T09:33:42;23.70;35.40
36690;DHT22;22676;51.120;3.702;2023-03-01T09:36:10;23.70;35.70
36690;DHT22;22676;51.120;3.702;2023-03-01T09:38:36;23.80;35.50
36690;DHT22;22676;51.120;3.702;2023-03-01T09:41:02;23.80;35.50
36690;DHT22;22676;51.120;3.702;2023-03-01T09:46:12;23.50;35.70
36690;DHT22;22676;51.120;3.702;2023-03-01T09:48:43;23.50;35.60
36690;DHT22;22676;51.120;3.702;2023-03-01T09:51:12;23.50;35.80
36690;DHT22;22676;51.120;3.702;2023-03-01T09:53:39;23.60;36.10
36690;DHT22;22676;51.120;3.702;2023-03-01T09:56:05;23.60;36.10
36690;DHT22;22676;51.120;3.702;2023-03-01T09:58:39;23.50;35.90
36690;DHT22;22676;51.120;3.702;2023-03-01T10:01:15;23.40;35.90
36690;DHT22;22676;51.120;3.702;2023-03-01T10:03:43;23.30;36.10
36690;DHT22;22676;51.120;3.702;2023-03-01T10:08:38;23.50;36.10
36690;DHT22;22676;51.120;3.702;2023-03-01T10:11:50;23.60;36.30
36690;DHT22;22676;51.120;3.702;2023-03-01T10:13:59;23.60;36.10
36690;DHT22;22676;51.120;3.702;2023-03-01T10:19:10;23.40;35.80
36690;DHT22;22676;51.120;3.702;2023-03-01T10:21:37;23.50;36.00
36690;DHT22;22676;51.120;3.702;2023-03-01T10:24:11;23.60;36.10
36690;DHT22;22676;51.120;3.702;2023-03-01T10:26:54;23.60;35.90
36690;DHT22;22676;51.120;3.702;2023-03-01T10:29:23;23.70;36.20
36690;DHT22;22676;51.120;3.702;2023-03-01T10:31:50;23.50;36.20
36690;DHT22;22676;51.120;3.702;2023-03-01T10:34:17;23.60;36.10
36690;DHT22;22676;51.120;3.702;2023-03-01T10:36:44;23.60;36.20
36690;DHT22;22676;51.120;3.702;2023-03-01T10:39:20;23.70;35.80
36690;DHT22;22676;51.120;3.702;2023-03-01T10:41:59;23.70;36.40
36690;DHT22;22676;51.120;3.702;2023-03-01T10:47:00;23.70;35.80
36690;DHT22;22676;51.120;3.702;2023-03-01T10:49:26;23.50;35.90
36690;DHT22;22676;51.120;3.702;2023-03-01T10:51:53;23.50;36.30
36690;DHT22;22676;51.120;3.702;2023-03-01T10:54:23;23.50;35.80
36690;DHT22;22676;51.120;3.702;2023-03-01T10:56:54;23.50;35.40
36690;DHT22;22676;51.120;3.702;2023-03-01T11:04:30;23.60;35.10
36690;DHT22;22676;51.120;3.702;2023-03-01T11:06:59;23.50;35.20
36690;DHT22;22676;51.120;3.702;2023-03-01T11:09:25;23.40;35.40
36690;DHT22;22676;51.120;3.702;2023-03-01T11:11:54;23.40;35.80
36690;DHT22;22676;51.120;3.702;2023-03-01T11:14:21;23.30;35.60
36690;DHT22;22676;51.120;3.702;2023-03-01T11:16:48;23.40;35.40
36690;DHT22;22676;51.120;3.702;2023-03-01T11:19:15;23.50;35.70
36690;DHT22;22676;51.120;3.702;2023-03-01T11:24:09;23.60;35.90
36690;DHT22;22676;51.120;3.702;2023-03-01T11:26:38;23.70;35.70
36690;DHT22;22676;51.120;3.702;2023-03-01T11:29:05;23.80;35.60
36690;DHT22;22676;51.120;3.702;2023-03-01T11:31:32;23.80;35.30
36690;DHT22;22676;51.120;3.702;2023-03-01T11:34:42;23.60;35.10
36690;DHT22;22676;51.120;3.702;2023-03-01T11:36:49;23.70;35.70
36690;DHT22;22676;51.120;3.702;2023-03-01T11:41:44;23.80;35.60
36690;DHT22;22676;51.120;3.702;2023-03-01T11:44:18;23.80;34.90
36690;DHT22;22676;51.120;3.702;2023-03-01T11:46:47;23.70;34.20
36690;DHT22;22676;51.120;3.702;2023-03-01T11:51:59;23.70;34.60
36690;DHT22;22676;51.120;3.702;2023-03-01T12:08:33;23.90;34.60
36690;DHT22;22676;51.120;3.702;2023-03-01T12:10:48;23.90;34.20
36690;DHT22;22676;51.120;3.702;2023-03-01T12:26:31;24.10;34.50
36690;DHT22;22676;51.120;3.702;2023-03-01T12:36:59;24.20;34.40
36690;DHT22;22676;51.120;3.702;2023-03-01T12:39:32;24.20;34.40
36690;DHT22;22676;51.120;3.702;2023-03-01T12:44:44;24.40;34.60
36690;DHT22;22676;51.120;3.702;2023-03-01T12:49:45;24.40;34.20
36690;DHT22;22676;51.120;3.702;2023-03-01T12:54:40;24.40;34.80
36690;DHT22;22676;51.120;3.702;2023-03-01T13:02:23;24.60;34.70
36690;DHT22;22676;51.120;3.702;2023-03-01T13:10:14;24.70;34.70
36690;DHT22;22676;51.120;3.702;2023-03-01T13:12:42;24.80;34.80
36690;DHT22;22676;51.120;3.702;2023-03-01T13:20:15;25.00;34.90
36690;DHT22;22676;51.120;3.702;2023-03-01T13:22:41;25.00;35.00
36690;DHT22;22676;51.120;3.702;2023-03-01T13:25:14;25.00;35.10
36690;DHT22;22676;51.120;3.702;2023-03-01T13:27:40;25.00;35.10
36690;DHT22;22676;51.120;3.702;2023-03-01T13:30:12;25.10;34.80
36690;DHT22;22676;51.120;3.702;2023-03-01T13:32:51;25.00;34.50
36690;DHT22;22676;51.120;3.702;2023-03-01T13:37:43;24.90;34.90
36690;DHT22;22676;51.120;3.702;2023-03-01T13:42:50;24.70;35.00
36690;DHT22;22676;51.120;3.702;2023-03-01T13:48:30;24.50;35.20
36690;DHT22;22676;51.120;3.702;2023-03-01T13:50:51;24.40;35.20
36690;DHT22;22676;51.120;3.702;2023-03-01T13:53:18;24.20;35.10
36690;DHT22;22676;51.120;3.702;2023-03-01T13:55:48;24.20;35.30
36690;DHT22;22676;51.120;3.702;2023-03-01T13:58:26;24.20;35.30
36690;DHT22;22676;51.120;3.702;2023-03-01T14:01:02;24.10;35.00
36690;DHT22;22676;51.120;3.702;2023-03-01T14:03:29;24.10;35.20
36690;DHT22;22676;51.120;3.702;2023-03-01T14:06:03;24.10;34.90
36690;DHT22;22676;51.120;3.702;2023-03-01T14:08:31;24.00;34.70
36690;DHT22;22676;51.120;3.702;2023-03-01T14:13:26;24.00;35.10
36690;DHT22;22676;51.120;3.702;2023-03-01T14:19:26;23.80;35.50
36690;DHT22;22676;51.120;3.702;2023-03-01T14:21:26;23.80;35.80
36690;DHT22;22676;51.120;3.702;2023-03-01T14:23:52;23.70;37.20
36690;DHT22;22676;51.120;3.702;2023-03-01T14:26:21;23.70;37.80
36690;DHT22;22676;51.120;3.702;2023-03-01T14:28:47;23.60;39.30
36690;DHT22;22676;51.120;3.702;2023-03-01T14:34:16;23.30;38.90
36690;DHT22;22676;51.120;3.702;2023-03-01T14:36:43;23.30;38.80
36690;DHT22;22676;51.120;3.702;2023-03-01T14:39:16;23.20;39.20
36690;DHT22;22676;51.120;3.702;2023-03-01T14:41:42;23.20;39.40
36690;DHT22;22676;51.120;3.702;2023-03-01T14:44:11;23.30;40.10
36690;DHT22;22676;51.120;3.702;2023-03-01T14:46:38;23.30;38.70
36690;DHT22;22676;51.120;3.702;2023-03-01T14:49:15;23.40;39.90
36690;DHT22;22676;51.120;3.702;2023-03-01T14:51:43;23.40;40.30
36690;DHT22;22676;51.120;3.702;2023-03-01T14:54:18;23.50;40.90
36690;DHT22;22676;51.120;3.702;2023-03-01T14:56:45;23.40;40.40
36690;DHT22;22676;51.120;3.702;2023-03-01T14:59:11;23.50;40.40
36690;DHT22;22676;51.120;3.702;2023-03-01T15:01:37;23.50;40.60
36690;DHT22;22676;51.120;3.702;2023-03-01T15:04:03;23.60;40.40
36690;DHT22;22676;51.120;3.702;2023-03-01T15:06:30;23.60;40.30
36690;DHT22;22676;51.120;3.702;2023-03-01T15:08:55;23.70;40.50
36690;DHT22;22676;51.120;3.702;2023-03-01T15:11:23;23.80;40.60
36690;DHT22;22676;51.120;3.702;2023-03-01T15:13:50;23.80;41.20
36690;DHT22;22676;51.120;3.702;2023-03-01T15:16:21;23.80;41.00
36690;DHT22;22676;51.120;3.702;2023-03-01T15:18:49;23.80;41.20
36690;DHT22;22676;51.120;3.702;2023-03-01T15:21:19;24.00;40.90
36690;DHT22;22676;51.120;3.702;2023-03-01T15:23:49;24.00;40.70
36690;DHT22;22676;51.120;3.702;2023-03-01T15:26:21;24.10;40.60
36690;DHT22;22676;51.120;3.702;2023-03-01T15:28:52;24.10;40.60
36690;DHT22;22676;51.120;3.702;2023-03-01T15:31:25;24.10;40.80
36690;DHT22;22676;51.120;3.702;2023-03-01T15:33:51;24.20;40.80
36690;DHT22;22676;51.120;3.702;2023-03-01T15:39:01;24.20;40.60
36690;DHT22;22676;51.120;3.702;2023-03-01T15:41:28;24.20;41.30
36690;DHT22;22676;51.120;3.702;2023-03-01T15:43:56;24.20;40.90
36690;DHT22;22676;51.120;3.702;2023-03-01T15:48:50;24.00;42.30
36690;DHT22;22676;51.120;3.702;2023-03-01T15:51:18;23.90;42.50
36690;DHT22;22676;51.120;3.702;2023-03-01T15:53:49;23.80;41.80
36690;DHT22;22676;51.120;3.702;2023-03-01T15:56:15;23.70;42.00
36690;DHT22;22676;51.120;3.702;2023-03-01T15:58:41;23.70;43.00
36690;DHT22;22676;51.120;3.702;2023-03-01T16:01:11;23.70;42.80
36690;DHT22;22676;51.120;3.702;2023-03-01T16:03:37;23.60;41.80
36690;DHT22;22676;51.120;3.702;2023-03-01T16:06:03;23.40;42.20
36690;DHT22;22676;51.120;3.702;2023-03-01T16:08:29;23.40;42.40
36690;DHT22;22676;51.120;3.702;2023-03-01T16:10:54;23.40;43.20
36690;DHT22;22676;51.120;3.702;2023-03-01T16:13:20;23.40;43.00
36690;DHT22;22676;51.120;3.702;2023-03-01T16:15:46;23.40;43.40
36690;DHT22;22676;51.120;3.702;2023-03-01T16:18:11;23.20;43.10
36690;DHT22;22676;51.120;3.702;2023-03-01T16:20:37;23.20;42.90
36690;DHT22;22676;51.120;3.702;2023-03-01T16:23:04;23.10;42.90
36690;DHT22;22676;51.120;3.702;2023-03-01T16:25:30;23.10;42.80
36690;DHT22;22676;51.120;3.702;2023-03-01T16:27:57;23.10;43.70
36690;DHT22;22676;51.120;3.702;2023-03-01T16:30:25;23.10;43.00
36690;DHT22;22676;51.120;3.702;2023-03-01T16:32:51;23.00;43.30
36690;DHT22;22676;51.120;3.702;2023-03-01T16:35:17;23.00;43.40
36690;DHT22;22676;51.120;3.702;2023-03-01T16:37:43;23.10;43.90
36690;DHT22;22676;51.120;3.702;2023-03-01T16:40:20;23.30;43.70
36690;DHT22;22676;51.120;3.702;2023-03-01T16:42:49;23.30;43.20
36690;DHT22;22676;51.120;3.702;2023-03-01T16:45:15;23.20;43.90
36690;DHT22;22676;51.120;3.702;2023-03-01T16:47:41;23.10;45.40
36690;DHT22;22676;51.120;3.702;2023-03-01T16:50:06;23.10;43.40
36690;DHT22;22676;51.120;3.702;2023-03-01T16:52:33;23.10;42.10
36690;DHT22;22676;51.120;3.702;2023-03-01T16:54:58;23.10;41.90
36690;DHT22;22676;51.120;3.702;2023-03-01T16:57:24;23.00;42.60
36690;DHT22;22676;51.120;3.702;2023-03-01T16:59:52;23.00;42.90
36690;DHT22;22676;51.120;3.702;2023-03-01T17:02:18;23.10;43.80
36690;DHT22;22676;51.120;3.702;2023-03-01T17:04:45;23.10;42.20
36690;DHT22;22676;51.120;3.702;2023-03-01T17:07:11;23.00;42.00
36690;DHT22;22676;51.120;3.702;2023-03-01T17:09:36;23.00;41.90
36690;DHT22;22676;51.120;3.702;2023-03-01T17:12:05;23.10;42.90
36690;DHT22;22676;51.120;3.702;2023-03-01T17:14:31;23.10;42.20
36690;DHT22;22676;51.120;3.702;2023-03-01T17:16:56;23.20;40.70
36690;DHT22;22676;51.120;3.702;2023-03-01T17:19:22;23.20;40.10
36690;DHT22;22676;51.120;3.702;2023-03-01T17:21:48;23.10;40.30
36690;DHT22;22676;51.120;3.702;2023-03-01T17:24:13;23.10;39.30
36690;DHT22;22676;51.120;3.702;2023-03-01T17:26:39;23.20;38.90